Time;durP1;ratioP1;P1;durP2;ratioP2;P2;SDS_P1;SDS_P2;PMS_P1;PMS_P2;Temp;Humidity;BMP_temperature;BMP_pressure;BME280_temperature;BME280_humidity;BME280_pressure;Samples;Min_cycle;Max_cycle;Signal;HPM_P1;HPM_P2
2022/08/03 00:01:28;;;;;;;18.87;12.30;;;13.90;99.90;;;;;;4371089;28;659267;-66
2022/08/03 00:04:15;;;;;;;14.23;11.93;;;13.80;99.90;;;;;;4351742;28;659286;-67
2022/08/03 00:07:02;;;;;;;16.83;12.57;;;13.90;99.90;;;;;;4366874;28;658721;-67
2022/08/03 00:09:50;;;;;;;14.73;12.63;;;13.90;99.90;;;;;;4364588;28;659359;-66
2022/08/03 00:12:38;;;;;;;17.73;12.43;;;13.90;99.90;;;;;;4340374;28;659258;-66
2022/08/03 00:15:25;;;;;;;20.37;13.50;;;13.90;99.90;;;;;;4346213;28;659483;-67
2022/08/03 00:18:12;;;;;;;15.10;12.30;;;13.90;99.90;;;;;;4368038;28;659363;-66
2022/08/03 00:21:00;;;;;;;17.33;12.07;;;13.90;99.90;;;;;;4361150;28;658347;-67
2022/08/03 00:23:47;;;;;;;17.08;12.88;;;13.90;99.90;;;;;;4367594;28;658715;-66
2022/08/03 00:26:34;;;;;;;23.33;13.93;;;13.90;99.90;;;;;;4371273;28;658470;-66
2022/08/03 00:29:23;;;;;;;20.00;15.47;;;13.90;99.90;;;;;;4346868;28;658835;-66
2022/08/03 00:32:10;;;;;;;17.33;15.07;;;13.90;99.90;;;;;;4358730;28;658633;-67
2022/08/03 00:34:57;;;;;;;17.70;14.73;;;13.90;99.90;;;;;;4374339;28;659561;-66
2022/08/03 00:37:44;;;;;;;17.83;13.90;;;13.90;99.90;;;;;;4368114;28;658773;-67
2022/08/03 00:40:31;;;;;;;20.33;13.93;;;13.90;99.90;;;;;;4347103;28;660209;-67
2022/08/03 00:43:19;;;;;;;20.50;13.87;;;13.80;99.90;;;;;;4368141;28;660111;-67
2022/08/03 00:46:07;;;;;;;18.03;15.77;;;13.80;99.90;;;;;;4350146;28;659020;-67
2022/08/03 00:48:54;;;;;;;17.17;13.13;;;13.80;99.90;;;;;;4368045;28;659215;-66
2022/08/03 00:51:41;;;;;;;16.93;12.50;;;13.80;99.90;;;;;;4344624;28;658848;-66
2022/08/03 00:54:28;;;;;;;15.83;13.37;;;13.90;99.90;;;;;;4369961;28;658205;-66
2022/08/03 00:57:15;;;;;;;20.97;14.70;;;13.80;99.90;;;;;;4346408;28;660109;-67
2022/08/03 01:00:03;;;;;;;17.33;13.40;;;13.70;99.90;;;;;;4363318;28;659128;-66
2022/08/03 01:02:51;;;;;;;23.40;13.97;;;13.70;99.90;;;;;;4358809;28;658970;-68
2022/08/03 01:05:43;;;;;;;19.97;14.77;;;13.70;99.90;;;;;;4363587;28;659367;-67
2022/08/03 01:08:42;;;;;;;23.60;14.17;;;13.70;99.90;;;;;;4326676;28;659136;-66
2022/08/03 01:11:32;;;;;;;21.73;13.80;;;13.70;99.90;;;;;;4346852;28;659863;-66
2022/08/03 01:14:22;;;;;;;21.10;15.43;;;13.60;99.90;;;;;;4341101;28;658202;-66
2022/08/03 01:17:11;;;;;;;20.40;14.57;;;13.60;99.90;;;;;;4345707;28;659249;-66
2022/08/03 01:20:02;;;;;;;22.83;16.02;;;13.60;99.90;;;;;;4340047;28;659648;-67
2022/08/03 01:23:15;;;;;;;25.67;17.97;;;13.60;99.90;;;;;;4343865;28;658578;-66
2022/08/03 01:26:19;;;;;;;22.20;14.20;;;13.60;99.90;;;;;;4347992;28;658746;-66
2022/08/03 01:29:15;;;;;;;22.80;16.93;;;13.50;99.90;;;;;;4320432;28;659295;-67
2022/08/03 01:32:08;;;;;;;19.10;14.03;;;13.50;99.90;;;;;;4319610;28;660346;-66
2022/08/03 01:35:02;;;;;;;26.10;13.80;;;13.50;99.90;;;;;;4327517;28;659185;-67
2022/08/03 01:37:51;;;;;;;21.70;13.67;;;13.50;99.90;;;;;;4344885;28;658751;-66
2022/08/03 01:40:40;;;;;;;22.70;15.83;;;13.50;99.90;;;;;;4342007;28;659278;-66
2022/08/03 01:43:27;;;;;;;29.23;18.20;;;13.50;99.90;;;;;;4351081;28;660247;-67
2022/08/03 01:46:15;;;;;;;20.07;16.00;;;13.50;99.90;;;;;;4360279;28;658815;-67
2022/08/03 01:49:04;;;;;;;23.83;16.33;;;13.50;99.90;;;;;;4363053;28;659154;-67
2022/08/03 01:51:51;;;;;;;29.13;18.33;;;13.40;99.90;;;;;;4347884;28;658696;-66
2022/08/03 01:54:45;;;;;;;28.40;18.60;;;13.30;99.90;;;;;;4366243;28;659118;-67
2022/08/03 01:57:32;;;;;;;27.90;18.93;;;13.30;99.90;;;;;;4324638;28;658843;-66
2022/08/03 02:00:20;;;;;;;27.38;18.40;;;13.30;99.90;;;;;;4346937;28;659010;-67
2022/08/03 02:03:08;;;;;;;27.30;18.83;;;13.40;99.90;;;;;;4366020;28;658694;-66
2022/08/03 02:05:57;;;;;;;26.75;18.02;;;13.50;99.90;;;;;;4353103;28;658733;-67
2022/08/03 02:08:45;;;;;;;30.43;19.43;;;13.40;99.90;;;;;;4368490;28;658658;-66
2022/08/03 02:11:32;;;;;;;29.67;18.57;;;13.40;99.90;;;;;;4347370;28;658955;-66
2022/08/03 02:14:19;;;;;;;26.80;19.40;;;13.40;99.90;;;;;;4368922;28;658881;-66
2022/08/03 02:17:07;;;;;;;39.27;18.43;;;13.30;99.90;;;;;;4350423;28;658518;-66
2022/08/03 02:19:54;;;;;;;29.40;17.93;;;13.30;99.90;;;;;;4369558;28;658978;-67
2022/08/03 02:22:43;;;;;;;24.10;18.67;;;13.40;99.90;;;;;;4348495;28;658706;-66
2022/08/03 02:25:30;;;;;;;24.43;19.57;;;13.30;99.90;;;;;;4352408;28;658216;-67
2022/08/03 02:28:19;;;;;;;23.83;19.03;;;13.30;99.90;;;;;;4366367;28;659965;-66
2022/08/03 02:31:08;;;;;;;28.33;19.43;;;13.30;99.90;;;;;;4347588;28;659258;-68
2022/08/03 02:33:57;;;;;;;24.73;18.77;;;13.30;99.90;;;;;;4352974;28;659233;-67
2022/08/03 02:36:46;;;;;;;23.47;18.27;;;13.30;99.90;;;;;;4366003;28;658735;-66
2022/08/03 02:39:34;;;;;;;25.90;17.87;;;13.30;99.90;;;;;;4345241;28;659393;-67
2022/08/03 02:42:21;;;;;;;24.07;17.10;;;13.30;99.90;;;;;;4349431;28;659159;-67
2022/08/03 02:45:11;;;;;;;26.57;17.77;;;13.30;99.90;;;;;;4364844;28;658648;-67
2022/08/03 02:47:59;;;;;;;24.40;18.17;;;13.20;99.90;;;;;;4345745;28;659473;-66
2022/08/03 02:50:46;;;;;;;21.57;17.53;;;13.30;99.90;;;;;;4349810;28;659114;-67
2022/08/03 02:53:34;;;;;;;22.37;17.80;;;13.30;99.90;;;;;;4367560;28;658611;-66
2022/08/03 02:56:22;;;;;;;20.20;16.77;;;13.30;99.90;;;;;;4341625;28;658497;-66
2022/08/03 02:59:09;;;;;;;23.33;17.23;;;13.30;99.90;;;;;;4366741;28;658266;-67
2022/08/03 03:01:56;;;;;;;21.27;16.77;;;13.30;99.90;;;;;;4346775;28;658887;-67
2022/08/03 03:04:43;;;;;;;23.40;17.53;;;13.30;99.90;;;;;;4367012;28;659281;-67
2022/08/03 03:07:31;;;;;;;22.27;17.17;;;13.30;99.90;;;;;;4349313;28;659295;-66
2022/08/03 03:10:18;;;;;;;25.73;16.37;;;13.20;99.90;;;;;;4373588;28;659280;-67
2022/08/03 03:13:06;;;;;;;21.83;16.93;;;13.30;99.90;;;;;;4349240;28;659212;-67
2022/08/03 03:15:54;;;;;;;24.23;17.50;;;13.30;99.90;;;;;;4366363;28;658521;-66
2022/08/03 03:18:41;;;;;;;23.80;17.07;;;13.30;99.90;;;;;;4347186;28;658562;-67
2022/08/03 03:21:28;;;;;;;22.55;17.20;;;13.30;99.90;;;;;;4368240;28;659020;-67
2022/08/03 03:24:15;;;;;;;21.87;16.03;;;13.30;99.90;;;;;;4353171;28;658384;-68
2022/08/03 03:27:02;;;;;;;23.10;16.63;;;13.30;99.90;;;;;;4363391;28;658679;-67
2022/08/03 03:29:51;;;;;;;22.43;17.20;;;13.40;99.90;;;;;;4359653;28;658688;-66
2022/08/03 03:32:38;;;;;;;23.60;17.23;;;13.40;99.90;;;;;;4334554;28;658839;-67
2022/08/03 03:35:26;;;;;;;24.53;18.73;;;13.40;99.90;;;;;;4342276;28;659131;-67
2022/08/03 03:38:13;;;;;;;24.90;19.23;;;13.40;99.90;;;;;;4353352;28;659371;-67
2022/08/03 03:41:00;;;;;;;28.27;21.03;;;13.50;99.90;;;;;;4354620;28;659380;-67
2022/08/03 03:43:48;;;;;;;26.00;18.33;;;13.60;99.90;;;;;;4372791;28;658901;-66
2022/08/03 03:46:37;;;;;;;26.23;18.53;;;13.70;99.90;;;;;;4343518;28;658958;-67
2022/08/03 03:49:24;;;;;;;22.57;16.63;;;13.80;99.90;;;;;;4371478;28;658276;-66
2022/08/03 03:52:11;;;;;;;22.37;17.47;;;13.80;99.90;;;;;;4348162;28;658629;-66
2022/08/03 03:54:58;;;;;;;23.67;17.67;;;13.90;99.90;;;;;;4364215;28;658768;-66
2022/08/03 03:57:46;;;;;;;28.20;18.47;;;13.90;99.90;;;;;;4348297;28;659795;-67
2022/08/03 04:00:33;;;;;;;26.63;18.70;;;14.00;99.90;;;;;;4367104;28;658832;-66
2022/08/03 04:03:21;;;;;;;23.13;18.45;;;14.10;99.90;;;;;;4345235;28;659421;-67
2022/08/03 04:12:18;;;;;;;24.53;18.30;;;14.40;99.90;;;;;;4342713;28;658987;-67
2022/08/03 04:15:06;;;;;;;25.10;16.70;;;14.50;99.90;;;;;;4350703;28;658940;-67
2022/08/03 04:17:53;;;;;;;25.00;19.03;;;14.50;99.90;;;;;;4368742;28;658739;-66
2022/08/03 04:20:42;;;;;;;27.00;18.03;;;14.60;99.90;;;;;;4349753;28;658696;-68
2022/08/03 04:23:30;;;;;;;26.07;18.23;;;14.70;99.90;;;;;;4358384;28;658681;-67
2022/08/03 04:26:20;;;;;;;22.23;17.80;;;14.90;99.90;;;;;;4329669;28;659431;-66
2022/08/03 04:29:07;;;;;;;28.03;18.83;;;15.00;99.90;;;;;;4339364;28;659277;-67
2022/08/03 04:31:54;;;;;;;27.27;21.80;;;15.10;99.90;;;;;;4358938;28;658708;-66
2022/08/03 04:34:41;;;;;;;30.93;23.57;;;15.10;99.90;;;;;;4348058;28;659229;-67
2022/08/03 04:37:35;;;;;;;29.47;22.33;;;15.30;99.90;;;;;;4363401;28;659055;-68
2022/08/03 04:40:25;;;;;;;29.53;18.83;;;15.50;99.90;;;;;;4316545;28;659184;-66
2022/08/03 04:43:12;;;;;;;27.70;19.07;;;15.60;99.90;;;;;;4346679;28;659480;-67
2022/08/03 04:45:59;;;;;;;28.10;20.20;;;15.60;99.90;;;;;;4367294;28;658737;-67
2022/08/03 04:48:47;;;;;;;26.20;20.20;;;15.80;99.90;;;;;;4344717;28;659571;-68
2022/08/03 04:51:36;;;;;;;28.57;22.37;;;15.90;99.90;;;;;;4368542;28;658574;-68
2022/08/03 04:54:25;;;;;;;32.10;22.20;;;16.10;99.90;;;;;;4345627;28;659173;-67
2022/08/03 04:57:12;;;;;;;28.30;21.27;;;16.10;99.90;;;;;;4343790;28;659120;-67
2022/08/03 04:59:59;;;;;;;32.20;21.57;;;16.20;99.90;;;;;;4366686;28;658504;-67
2022/08/03 05:02:46;;;;;;;27.10;21.37;;;16.40;99.90;;;;;;4349538;28;658711;-67
2022/08/03 05:05:34;;;;;;;30.43;23.80;;;16.60;99.90;;;;;;4357273;28;658261;-68
2022/08/03 05:08:21;;;;;;;33.28;21.90;;;16.80;99.90;;;;;;4346680;28;658676;-67
2022/08/03 05:11:09;;;;;;;25.53;21.43;;;17.00;99.90;;;;;;4371039;28;659222;-67
2022/08/03 05:13:56;;;;;;;30.13;22.57;;;17.10;99.90;;;;;;4351983;28;658648;-67
2022/08/03 05:16:44;;;;;;;30.43;23.73;;;17.10;99.90;;;;;;4368175;28;658863;-66
2022/08/03 05:19:31;;;;;;;31.90;24.20;;;17.20;99.90;;;;;;4343906;28;659700;-67
2022/08/03 05:22:18;;;;;;;29.67;22.95;;;17.50;99.90;;;;;;4362018;28;658415;-67
2022/08/03 05:25:05;;;;;;;29.23;23.10;;;17.70;99.90;;;;;;4350098;28;660149;-68
2022/08/03 05:27:54;;;;;;;26.87;21.30;;;18.00;99.90;;;;;;4361343;28;659097;-66
2022/08/03 05:30:41;;;;;;;22.47;19.13;;;18.20;99.90;;;;;;4347191;28;658874;-67
2022/08/03 05:33:28;;;;;;;28.10;19.83;;;18.40;99.90;;;;;;4365610;28;659450;-67
2022/08/03 05:36:15;;;;;;;21.70;19.33;;;18.60;99.90;;;;;;4347720;28;658708;-66
2022/08/03 05:39:03;;;;;;;26.80;22.37;;;18.80;99.90;;;;;;4366686;28;658952;-65
2022/08/03 05:41:50;;;;;;;28.63;23.33;;;19.10;99.90;;;;;;4440950;28;658682;-66
2022/08/03 05:44:39;;;;;;;28.50;20.50;;;19.30;99.90;;;;;;4373346;28;658918;-66
2022/08/03 05:47:26;;;;;;;21.53;19.23;;;19.60;99.90;;;;;;4347152;28;658781;-66
2022/08/03 05:50:13;;;;;;;26.07;20.57;;;19.80;99.90;;;;;;4374822;28;659549;-66
2022/08/03 05:53:00;;;;;;;25.20;19.97;;;19.90;99.90;;;;;;4346333;28;658935;-67
2022/08/03 05:55:47;;;;;;;24.73;18.63;;;20.10;99.90;;;;;;4372744;28;659119;-66
2022/08/03 05:58:34;;;;;;;25.57;19.40;;;20.20;99.90;;;;;;4365901;28;658866;-66
2022/08/03 06:01:23;;;;;;;24.93;19.60;;;20.40;99.90;;;;;;4346138;28;659348;-66
2022/08/03 06:04:10;;;;;;;27.07;21.07;;;20.40;99.90;;;;;;4346687;28;658486;-67
2022/08/03 06:06:57;;;;;;;27.97;18.57;;;20.60;99.90;;;;;;4365757;28;659776;-66
2022/08/03 06:09:45;;;;;;;25.10;20.27;;;20.50;99.90;;;;;;4366248;28;659002;-67
2022/08/03 06:12:34;;;;;;;25.20;19.27;;;20.50;99.90;;;;;;4364340;28;659376;-66
2022/08/03 06:15:21;;;;;;;22.53;15.73;;;20.60;99.90;;;;;;4341313;28;658864;-66
2022/08/03 06:18:10;;;;;;;25.00;16.17;;;20.50;99.90;;;;;;4372565;28;658643;-66
2022/08/03 06:20:57;;;;;;;23.03;19.20;;;20.20;99.90;;;;;;4343295;28;659352;-66
2022/08/03 06:23:44;;;;;;;21.00;17.85;;;20.10;99.90;;;;;;4364587;28;659175;-66
2022/08/03 06:26:32;;;;;;;22.13;18.73;;;20.00;99.90;;;;;;4337981;28;660436;-66
2022/08/03 06:29:19;;;;;;;24.60;17.63;;;20.20;99.90;;;;;;4365415;28;658453;-66
2022/08/03 06:32:06;;;;;;;26.67;19.77;;;20.50;99.90;;;;;;4342796;28;658688;-67
2022/08/03 06:34:55;;;;;;;24.07;18.53;;;20.60;99.90;;;;;;4366457;28;658996;-67
2022/08/03 06:37:44;;;;;;;24.40;18.87;;;20.70;99.90;;;;;;4346241;28;659671;-67
2022/08/03 06:40:32;;;;;;;26.13;20.43;;;20.80;99.90;;;;;;4347907;28;659509;-67
2022/08/03 06:43:20;;;;;;;23.33;19.63;;;21.10;99.90;;;;;;4363225;28;659212;-67
2022/08/03 06:46:07;;;;;;;21.93;18.10;;;21.40;99.90;;;;;;4373360;28;659028;-66
2022/08/03 06:48:55;;;;;;;23.43;17.80;;;21.60;99.90;;;;;;4369009;28;659355;-66
2022/08/03 06:51:43;;;;;;;20.50;16.60;;;21.80;99.90;;;;;;4348903;28;659279;-66
2022/08/03 06:54:30;;;;;;;18.90;14.77;;;22.10;99.90;;;;;;4348403;28;658843;-66
2022/08/03 06:57:18;;;;;;;18.57;14.43;;;22.20;99.90;;;;;;4367947;28;660521;-67
2022/08/03 07:00:08;;;;;;;17.87;14.67;;;22.20;99.90;;;;;;4343983;28;659175;-66
2022/08/03 07:02:55;;;;;;;15.33;13.70;;;22.50;99.90;;;;;;4351003;28;658680;-66
2022/08/03 07:05:42;;;;;;;16.63;13.27;;;22.90;99.90;;;;;;4372669;28;659464;-66
2022/08/03 07:08:31;;;;;;;15.30;13.10;;;23.00;99.90;;;;;;4365759;28;658782;-66
2022/08/03 07:11:18;;;;;;;18.17;12.27;;;22.70;99.90;;;;;;4346496;28;659864;-66
2022/08/03 07:14:05;;;;;;;19.83;11.93;;;22.80;99.90;;;;;;4349331;28;658481;-66
2022/08/03 07:16:52;;;;;;;14.93;10.87;;;22.70;99.90;;;;;;4375011;28;658416;-66
2022/08/03 07:19:39;;;;;;;12.03;9.80;;;23.30;99.90;;;;;;4372072;28;658398;-67
2022/08/03 07:22:27;;;;;;;16.20;10.40;;;23.30;99.90;;;;;;4353427;28;657469;-66
2022/08/03 07:25:15;;;;;;;12.43;10.10;;;23.00;99.90;;;;;;4366015;28;658128;-66
2022/08/03 07:28:02;;;;;;;14.27;10.40;;;22.60;99.90;;;;;;4352290;28;660470;-66
2022/08/03 07:30:49;;;;;;;11.73;10.37;;;22.60;99.90;;;;;;4373400;28;658532;-66
2022/08/03 07:33:37;;;;;;;11.57;9.63;;;22.60;99.90;;;;;;4345715;28;658597;-67
2022/08/03 07:36:24;;;;;;;13.23;10.57;;;22.90;99.90;;;;;;4372854;28;658300;-65
2022/08/03 07:39:11;;;;;;;16.63;10.52;;;23.00;99.90;;;;;;4350858;28;658964;-66
2022/08/03 07:42:00;;;;;;;18.90;10.50;;;22.90;99.90;;;;;;4375793;28;659184;-66
2022/08/03 07:44:47;;;;;;;14.98;11.02;;;23.00;99.90;;;;;;4349267;28;659209;-65
2022/08/03 07:47:34;;;;;;;14.25;11.10;;;23.00;99.90;;;;;;4370523;28;659157;-67
2022/08/03 07:50:21;;;;;;;15.07;10.13;;;23.10;99.90;;;;;;4351026;28;658380;-66
2022/08/03 07:53:08;;;;;;;11.90;9.73;;;23.10;99.90;;;;;;4361193;28;659247;-66
2022/08/03 07:55:56;;;;;;;11.37;9.93;;;23.20;99.90;;;;;;4346109;28;657332;-66
2022/08/03 07:58:44;;;;;;;12.07;10.23;;;23.30;99.90;;;;;;4376485;28;658586;-66
2022/08/03 08:01:35;;;;;;;13.70;10.43;;;23.30;99.90;;;;;;4347611;28;658869;-67
2022/08/03 08:04:22;;;;;;;13.43;10.07;;;23.30;99.90;;;;;;4346609;28;659502;-66
2022/08/03 08:07:09;;;;;;;11.85;10.32;;;23.30;99.90;;;;;;4369058;28;658529;-66
2022/08/03 08:09:56;;;;;;;13.73;10.80;;;23.40;99.90;;;;;;4350886;28;658649;-66
2022/08/03 08:12:43;;;;;;;14.45;12.18;;;23.20;99.90;;;;;;4365837;28;658472;-66
2022/08/03 08:15:32;;;;;;;13.75;10.85;;;23.60;99.90;;;;;;4350631;28;658989;-67
2022/08/03 08:18:19;;;;;;;12.30;10.10;;;24.30;99.90;;;;;;4366944;28;658968;-67
2022/08/03 08:21:06;;;;;;;12.00;10.35;;;25.00;99.90;;;;;;4352563;28;658623;-66
2022/08/03 08:23:53;;;;;;;11.65;10.45;;;24.60;99.90;;;;;;4370707;28;658784;-67
2022/08/03 08:26:40;;;;;;;12.88;10.48;;;24.10;99.90;;;;;;4350029;28;658465;-67
2022/08/03 08:29:27;;;;;;;12.10;10.00;;;23.80;99.90;;;;;;4366947;28;659940;-66
2022/08/03 08:32:16;;;;;;;13.95;11.00;;;23.80;99.90;;;;;;4366113;28;659602;-66
2022/08/03 08:35:04;;;;;;;11.52;10.35;;;23.50;99.90;;;;;;4365501;28;658995;-66
2022/08/03 08:37:51;;;;;;;10.77;9.57;;;24.10;99.90;;;;;;4348242;28;658842;-66
2022/08/03 08:40:38;;;;;;;11.32;9.32;;;24.40;99.90;;;;;;4372200;28;658513;-66
2022/08/03 08:43:25;;;;;;;11.75;9.52;;;25.30;99.90;;;;;;4346624;28;658119;-67
2022/08/03 08:46:13;;;;;;;10.77;9.52;;;25.80;99.90;;;;;;4374887;28;658892;-66
2022/08/03 08:49:01;;;;;;;9.95;8.85;;;26.40;99.90;;;;;;4352046;28;657745;-67
2022/08/03 08:51:49;;;;;;;12.13;9.15;;;26.60;99.90;;;;;;4369173;28;656542;-65
2022/08/03 08:54:36;;;;;;;10.27;8.82;;;27.10;99.90;;;;;;4350428;28;657296;-66
2022/08/03 08:57:25;;;;;;;10.32;9.07;;;27.50;99.90;;;;;;4365220;28;657779;-66
2022/08/03 09:00:13;;;;;;;11.38;8.45;;;27.30;99.90;;;;;;4343695;28;658162;-66
2022/08/03 09:03:01;;;;;;;9.98;8.85;;;27.10;99.90;;;;;;4347556;28;657430;-67
2022/08/03 09:05:49;;;;;;;10.20;8.65;;;27.40;99.90;;;;;;4361285;28;656758;-66
2022/08/03 09:08:37;;;;;;;11.23;8.45;;;26.80;99.90;;;;;;4333219;28;659128;-65
2022/08/03 09:11:24;;;;;;;11.27;8.95;;;26.70;99.90;;;;;;4365571;28;657762;-66
2022/08/03 09:14:11;;;;;;;11.60;8.02;;;27.10;99.90;;;;;;4349274;28;657638;-66
2022/08/03 09:17:00;;;;;;;10.57;7.97;;;27.10;99.90;;;;;;4363337;28;658712;-67
2022/08/03 09:20:04;;;;;;;8.93;7.30;;;27.70;99.90;;;;;;4345083;28;658822;-67
2022/08/03 09:22:55;;;;;;;8.52;7.63;;;28.20;98.40;;;;;;4323938;28;656728;-67
2022/08/03 09:25:42;;;;;;;8.80;7.82;;;28.50;97.10;;;;;;4339662;28;657362;-66
2022/08/03 09:28:34;;;;;;;8.07;7.28;;;28.70;95.50;;;;;;4360495;28;656573;-65
2022/08/03 09:31:22;;;;;;;8.65;7.20;;;28.90;92.40;;;;;;4340638;28;656903;-66
2022/08/03 09:34:10;;;;;;;13.52;7.28;;;29.30;88.90;;;;;;4369186;28;656049;-66
2022/08/03 09:36:57;;;;;;;8.43;6.23;;;29.40;88.20;;;;;;4338936;28;658023;-66
2022/08/03 09:39:46;;;;;;;8.88;6.15;;;29.30;82.50;;;;;;4363747;28;656305;-66
2022/08/03 09:42:37;;;;;;;7.93;6.10;;;29.40;80.40;;;;;;4337682;28;658131;-66
2022/08/03 09:45:27;;;;;;;13.68;5.78;;;29.60;83.70;;;;;;4349246;28;656776;-67
2022/08/03 09:48:21;;;;;;;6.47;5.60;;;30.40;71.90;;;;;;4339200;28;657538;-66
2022/08/03 09:51:08;;;;;;;12.30;8.32;;;30.60;67.50;;;;;;4343488;28;657104;-66
2022/08/03 09:54:00;;;;;;;11.23;9.00;;;29.70;83.20;;;;;;4341374;28;657921;-67
2022/08/03 09:56:49;;;;;;;14.05;8.93;;;29.30;81.10;;;;;;4343100;28;657922;-67
2022/08/03 09:59:36;;;;;;;9.75;8.23;;;29.00;88.10;;;;;;4343279;28;657523;-66
2022/08/03 10:02:24;;;;;;;10.10;7.55;;;28.50;86.60;;;;;;4367072;28;656971;-65
2022/08/03 10:05:12;;;;;;;11.38;7.90;;;28.00;82.70;;;;;;4345785;28;657808;-65
2022/08/03 10:07:59;;;;;;;9.38;7.65;;;27.30;88.20;;;;;;4359734;28;656999;-65
2022/08/03 10:10:47;;;;;;;8.38;6.90;;;27.20;90.10;;;;;;4342432;28;657122;-66
2022/08/03 10:13:37;;;;;;;9.15;7.15;;;26.60;87.00;;;;;;4355008;28;656445;-66
2022/08/03 10:16:24;;;;;;;10.02;8.18;;;26.40;87.00;;;;;;4361406;28;656810;-66
2022/08/03 10:19:12;;;;;;;10.43;8.20;;;26.20;91.30;;;;;;4347275;28;658100;-66
2022/08/03 10:22:02;;;;;;;9.10;8.10;;;26.70;93.20;;;;;;4376155;28;657790;-66
2022/08/03 10:24:53;;;;;;;11.60;8.18;;;27.10;95.80;;;;;;4332827;28;656477;-67
2022/08/03 10:27:41;;;;;;;12.25;7.53;;;27.00;93.60;;;;;;4343262;28;657694;-66
2022/08/03 10:30:30;;;;;;;7.97;7.18;;;26.30;95.00;;;;;;4363663;28;658847;-65
2022/08/03 10:33:19;;;;;;;7.95;6.90;;;26.30;92.50;;;;;;4345133;28;657094;-66
2022/08/03 10:36:06;;;;;;;11.80;7.53;;;27.10;92.40;;;;;;4343726;28;657604;-66
2022/08/03 10:38:53;;;;;;;9.07;7.55;;;27.00;90.30;;;;;;4362456;28;657540;-65
2022/08/03 10:41:43;;;;;;;9.75;7.88;;;26.60;95.20;;;;;;4341124;28;657351;-65
2022/08/03 10:44:33;;;;;;;9.70;7.78;;;25.50;96.70;;;;;;4348213;28;657178;-66
2022/08/03 10:47:21;;;;;;;10.13;7.82;;;25.20;97.00;;;;;;4349819;28;656806;-65
2022/08/03 10:50:09;;;;;;;10.52;8.00;;;25.30;99.90;;;;;;4358374;28;657539;-65
2022/08/03 10:52:56;;;;;;;10.35;9.02;;;24.90;99.90;;;;;;4352467;28;657724;-65
2022/08/03 10:58:52;;;;;;;10.45;8.10;;;26.20;99.90;;;;;;4348413;28;657757;-66
2022/08/03 11:01:53;;;;;;;8.38;7.57;;;27.10;97.50;;;;;;4347949;28;658487;-65
2022/08/03 11:04:44;;;;;;;9.05;8.07;;;27.00;99.90;;;;;;4322836;28;657551;-66
2022/08/03 11:07:31;;;;;;;8.30;7.50;;;26.80;91.30;;;;;;4347676;28;656775;-65
2022/08/03 11:10:29;;;;;;;8.25;6.90;;;27.80;89.70;;;;;;4378045;28;657424;-65
2022/08/03 11:13:17;;;;;;;12.13;7.35;;;26.70;87.60;;;;;;4351646;28;656346;-65
2022/08/03 11:16:18;;;;;;;13.40;8.77;;;26.30;91.40;;;;;;4363765;28;657641;-65
2022/08/03 11:19:06;;;;;;;13.48;8.65;;;25.10;95.10;;;;;;4320553;28;657508;-65
2022/08/03 11:21:58;;;;;;;10.13;8.20;;;25.30;95.90;;;;;;4364181;28;658296;-66
2022/08/03 11:25:00;;;;;;;11.90;7.90;;;25.20;96.40;;;;;;4321482;28;657859;-65
2022/08/03 11:27:47;;;;;;;9.15;7.30;;;25.90;99.60;;;;;;4345353;28;657714;-65
2022/08/03 11:30:34;;;;;;;11.32;7.25;;;26.90;93.50;;;;;;4365414;28;656385;-65
2022/08/03 11:33:29;;;;;;;7.72;6.28;;;27.60;92.90;;;;;;4353164;28;658530;-65
2022/08/03 11:36:16;;;;;;;8.18;6.38;;;28.50;80.40;;;;;;4348760;28;656767;-65
2022/08/03 11:39:14;;;;;;;7.53;6.82;;;29.00;83.60;;;;;;4373460;28;656664;-65
2022/08/03 11:42:01;;;;;;;10.95;6.40;;;28.50;79.50;;;;;;4353629;28;657201;-65
2022/08/03 11:44:48;;;;;;;8.98;6.32;;;28.20;84.50;;;;;;4366373;28;659029;-66
2022/08/03 11:47:38;;;;;;;6.40;5.80;;;28.50;79.70;;;;;;4350299;28;656947;-65
2022/08/03 11:50:25;;;;;;;6.85;6.10;;;28.70;81.60;;;;;;4363269;28;656735;-65
2022/08/03 11:53:16;;;;;;;10.35;6.50;;;29.30;72.80;;;;;;4375628;28;656115;-65
2022/08/03 11:56:05;;;;;;;7.47;5.43;;;29.70;73.40;;;;;;4342676;28;658547;-65
2022/08/03 11:58:54;;;;;;;7.30;5.70;;;30.90;67.00;;;;;;4345326;28;657177;-65
2022/08/03 12:01:41;;;;;;;7.97;5.60;;;31.20;72.20;;;;;;4342158;28;657106;-65
2022/08/03 12:04:28;;;;;;;6.00;4.65;;;31.80;71.10;;;;;;4359143;28;656696;-65
2022/08/03 12:07:16;;;;;;;6.70;4.90;;;32.10;59.00;;;;;;4348070;28;656551;-66
2022/08/03 12:10:07;;;;;;;6.38;5.00;;;30.70;57.40;;;;;;4367083;28;657746;-65
2022/08/03 12:12:57;;;;;;;4.60;4.15;;;30.90;60.00;;;;;;4343516;28;656444;-65
2022/08/03 12:15:44;;;;;;;5.32;4.38;;;30.80;58.40;;;;;;4346039;28;656422;-65
2022/08/03 12:18:31;;;;;;;5.37;4.00;;;30.80;62.60;;;;;;4343909;28;656815;-65
2022/08/03 12:21:23;;;;;;;5.13;4.15;;;31.20;60.30;;;;;;4358804;28;658752;-66
2022/08/03 12:24:11;;;;;;;5.70;3.83;;;31.40;57.80;;;;;;4344543;28;656271;-66
2022/08/03 12:26:58;;;;;;;4.63;4.10;;;31.00;54.30;;;;;;4371023;28;657110;-65
2022/08/03 12:29:47;;;;;;;4.47;4.07;;;31.40;56.00;;;;;;4360638;28;656400;-65
2022/08/03 12:32:34;;;;;;;5.68;4.20;;;31.60;57.10;;;;;;4374108;28;656345;-65
2022/08/03 12:35:24;;;;;;;4.32;3.28;;;31.70;59.70;;;;;;4344391;28;656556;-65
2022/08/03 12:38:12;;;;;;;4.78;4.00;;;30.70;51.70;;;;;;4348846;28;656731;-65
2022/08/03 12:41:04;;;;;;;6.28;3.90;;;31.20;53.90;;;;;;4368695;28;656861;-65
2022/08/03 12:43:51;;;;;;;4.47;4.00;;;31.30;56.10;;;;;;4341986;28;657117;-65
2022/08/03 12:46:40;;;;;;;5.43;4.03;;;31.60;56.20;;;;;;4359801;28;657148;-65
2022/08/03 12:49:28;;;;;;;8.48;3.88;;;31.80;57.30;;;;;;4356816;28;657792;-66
2022/08/03 12:52:15;;;;;;;6.05;3.92;;;31.00;55.50;;;;;;4352260;28;658056;-65
2022/08/03 12:55:02;;;;;;;6.07;4.20;;;30.30;58.60;;;;;;4374974;28;657879;-65
2022/08/03 12:57:49;;;;;;;6.05;4.40;;;30.40;59.50;;;;;;4370169;28;656629;-65
2022/08/03 13:00:37;;;;;;;4.85;4.30;;;30.70;58.00;;;;;;4349762;28;658173;-65
2022/08/03 13:03:25;;;;;;;5.72;4.10;;;30.50;56.40;;;;;;4367805;28;657329;-65
2022/08/03 13:06:13;;;;;;;4.97;3.40;;;31.60;56.20;;;;;;4348044;28;657546;-66
2022/08/03 13:09:04;;;;;;;9.20;3.50;;;31.80;57.50;;;;;;4348879;28;656358;-66
2022/08/03 13:12:05;;;;;;;5.13;3.70;;;32.10;55.70;;;;;;4351791;28;657631;-65
2022/08/03 13:14:55;;;;;;;3.90;3.47;;;31.70;55.10;;;;;;4347360;28;657112;-66
2022/08/03 13:17:42;;;;;;;5.83;3.80;;;31.00;57.90;;;;;;4347540;28;656940;-65
2022/08/03 13:20:31;;;;;;;6.55;4.18;;;30.30;59.00;;;;;;4370168;28;656600;-65
2022/08/03 13:23:19;;;;;;;4.32;3.72;;;29.90;62.40;;;;;;4347048;28;657587;-66
2022/08/03 13:26:06;;;;;;;6.03;4.05;;;29.10;60.80;;;;;;4341585;28;657528;-65
2022/08/03 13:28:53;;;;;;;13.30;4.60;;;28.70;65.40;;;;;;4372791;28;657359;-65
2022/08/03 13:31:40;;;;;;;5.32;3.70;;;28.60;68.60;;;;;;4352075;28;657327;-66
2022/08/03 13:34:27;;;;;;;4.50;4.10;;;28.90;67.80;;;;;;4371420;28;656681;-66
2022/08/03 13:37:16;;;;;;;6.13;3.78;;;30.30;63.30;;;;;;4362034;28;656668;-67
2022/08/03 13:40:04;;;;;;;4.60;3.75;;;30.80;63.60;;;;;;4339920;28;656981;-65
2022/08/03 13:42:51;;;;;;;3.78;3.45;;;31.50;59.90;;;;;;4346907;28;657403;-65
2022/08/03 13:45:38;;;;;;;5.70;3.67;;;32.00;55.00;;;;;;4357652;28;657657;-65
2022/08/03 13:48:25;;;;;;;5.25;3.60;;;32.10;51.30;;;;;;4346990;28;656522;-66
2022/08/03 13:51:12;;;;;;;4.00;3.42;;;31.20;53.30;;;;;;4366535;28;657740;-65
2022/08/03 13:54:01;;;;;;;7.40;3.83;;;31.30;50.70;;;;;;4366845;28;656338;-65
2022/08/03 13:56:51;;;;;;;9.07;3.65;;;31.60;50.60;;;;;;4339405;28;657301;-65
2022/08/03 13:59:38;;;;;;;3.40;3.10;;;32.00;56.20;;;;;;4345357;28;658417;-66
2022/08/03 14:02:25;;;;;;;7.78;3.80;;;32.40;53.00;;;;;;4339274;28;656729;-65
2022/08/03 14:05:12;;;;;;;5.60;3.60;;;32.70;52.20;;;;;;4370521;28;658203;-64
2022/08/03 14:08:00;;;;;;;5.68;3.60;;;33.20;50.50;;;;;;4370014;28;656165;-66
2022/08/03 14:10:49;;;;;;;5.63;3.47;;;33.80;49.60;;;;;;4370728;28;658229;-65
2022/08/03 14:13:36;;;;;;;4.10;3.70;;;33.50;52.10;;;;;;4353463;28;657110;-65
2022/08/03 14:16:23;;;;;;;4.05;3.50;;;32.90;50.20;;;;;;4373042;28;657690;-65
2022/08/03 14:19:10;;;;;;;4.45;3.60;;;32.90;47.20;;;;;;4353475;28;656711;-65